Time;durP1;ratioP1;P1;durP2;ratioP2;P2;SDS_P1;SDS_P2;PMS_P1;PMS_P2;Temp;Humidity;BMP_temperature;BMP_pressure;BME280_temperature;BME280_humidity;BME280_pressure;Samples;Min_cycle;Max_cycle;Signal;HPM_P1;HPM_P2
2021/12/07 00:00:20;;;;;;;12.63;6.10;;;1.20;99.90;;;;;;5022833;28;20234;-64
2021/12/07 00:03:05;;;;;;;9.57;4.97;;;1.30;99.90;;;;;;5024015;28;20254;-65
2021/12/07 00:05:50;;;;;;;9.53;5.30;;;1.20;99.90;;;;;;5021407;28;20195;-65
2021/12/07 00:08:36;;;;;;;7.63;4.60;;;1.10;99.90;;;;;;5024020;28;20190;-63
2021/12/07 00:11:27;;;;;;;9.13;5.33;;;1.20;99.90;;;;;;5023071;28;20202;-64
2021/12/07 00:14:14;;;;;;;11.67;5.23;;;1.20;99.90;;;;;;5021381;28;20262;-63
2021/12/07 00:16:58;;;;;;;14.20;5.20;;;1.10;99.90;;;;;;5023874;28;20270;-63
2021/12/07 00:19:43;;;;;;;7.10;3.80;;;1.10;99.90;;;;;;5022005;28;20271;-63
2021/12/07 00:22:28;;;;;;;9.50;4.40;;;1.00;99.90;;;;;;5021421;28;20302;-62
2021/12/07 00:25:13;;;;;;;11.23;4.27;;;1.00;99.90;;;;;;5024488;28;20195;-63
2021/12/07 00:27:58;;;;;;;9.00;5.43;;;1.00;99.90;;;;;;5021220;28;20235;-64
2021/12/07 00:30:42;;;;;;;4.77;2.60;;;1.00;99.90;;;;;;5022226;28;20246;-63
2021/12/07 00:36:12;;;;;;;7.60;4.83;;;1.10;99.90;;;;;;5021370;28;20288;-64
2021/12/07 00:38:57;;;;;;;6.17;3.73;;;1.10;99.90;;;;;;5023540;28;20210;-64
2021/12/07 00:41:41;;;;;;;7.13;4.83;;;1.10;99.90;;;;;;5022455;28;20234;-65
2021/12/07 00:44:29;;;;;;;5.73;3.50;;;1.00;99.90;;;;;;5020717;28;20199;-64
2021/12/07 00:47:13;;;;;;;6.50;4.37;;;0.90;99.90;;;;;;5023620;28;20195;-64
2021/12/07 00:49:58;;;;;;;10.63;5.00;;;0.90;99.90;;;;;;5021662;28;20222;-63
2021/12/07 00:52:42;;;;;;;10.17;5.37;;;0.90;99.90;;;;;;5025641;28;20206;-64
2021/12/07 00:55:30;;;;;;;7.67;5.13;;;0.90;99.90;;;;;;5028354;28;20198;-63
2021/12/07 00:58:18;;;;;;;9.37;4.33;;;0.80;99.90;;;;;;5025257;28;20238;-64
2021/12/07 01:01:08;;;;;;;5.33;3.97;;;0.80;99.90;;;;;;5026493;28;20234;-63
2021/12/07 01:03:53;;;;;;;9.87;5.37;;;0.80;99.90;;;;;;5028323;28;20191;-64
2021/12/07 01:24:39;;;;;;;7.00;4.23;;;0.90;99.90;;;;;;5028297;28;20235;-63
2021/12/07 01:24:56;;;;;;;13.93;5.37;;;0.80;99.90;;;;;;5027450;28;20195;-64
2021/12/07 01:27:42;;;;;;;5.10;3.33;;;0.80;99.90;;;;;;5025027;28;20222;-64
2021/12/07 01:30:40;;;;;;;10.13;5.00;;;0.90;99.90;;;;;;5028022;28;20222;-63
2021/12/07 01:45:36;;;;;;;12.63;4.67;;;0.90;99.90;;;;;;5026264;28;20198;-64
2021/12/07 02:00:14;;;;;;;7.97;5.73;;;0.90;99.90;;;;;;5028080;28;20199;-64
2021/12/07 02:02:59;;;;;;;11.33;5.43;;;0.90;99.90;;;;;;5022759;28;20203;-64
2021/12/07 02:05:44;;;;;;;13.60;6.50;;;0.90;99.90;;;;;;5026178;28;20234;-65
2021/12/07 02:08:28;;;;;;;5.07;3.70;;;1.00;99.90;;;;;;5026410;28;20230;-64
2021/12/07 02:11:13;;;;;;;15.77;6.53;;;1.00;99.90;;;;;;5023286;28;20274;-63
2021/12/07 02:16:45;;;;;;;7.73;4.80;;;1.00;99.90;;;;;;5026276;28;20664;-65
2021/12/07 02:19:29;;;;;;;8.97;5.70;;;1.10;99.90;;;;;;5024012;28;20425;-62
2021/12/07 02:22:14;;;;;;;13.27;5.83;;;1.10;99.90;;;;;;5027813;28;20203;-64
2021/12/07 02:24:58;;;;;;;13.07;6.00;;;1.10;99.90;;;;;;5024121;28;20234;-64
2021/12/07 02:27:45;;;;;;;12.67;5.80;;;1.00;99.90;;;;;;5025443;28;20203;-64
2021/12/07 02:30:30;;;;;;;9.23;5.37;;;1.10;99.90;;;;;;5026411;28;20226;-65
2021/12/07 02:33:14;;;;;;;11.47;4.20;;;1.10;99.90;;;;;;5022991;28;20207;-67
2021/12/07 02:35:59;;;;;;;10.20;5.97;;;1.00;99.90;;;;;;5025467;28;20255;-63
2021/12/07 02:38:43;;;;;;;5.07;4.17;;;1.00;99.90;;;;;;5025370;28;20203;-65
2021/12/07 02:41:27;;;;;;;11.27;4.10;;;1.10;99.90;;;;;;5023396;28;20190;-63
2021/12/07 02:44:13;;;;;;;5.50;4.03;;;1.00;99.90;;;;;;5026909;28;20267;-64
2021/12/07 02:46:58;;;;;;;9.97;4.50;;;0.90;99.90;;;;;;5024264;28;20250;-64
2021/12/07 02:49:42;;;;;;;6.27;4.57;;;1.00;99.90;;;;;;5023608;28;20227;-64
2021/12/07 02:52:27;;;;;;;5.90;5.10;;;1.00;99.90;;;;;;5026328;28;20195;-64
2021/12/07 02:55:12;;;;;;;9.87;5.73;;;1.00;99.90;;;;;;5022657;28;20237;-65
2021/12/07 02:57:57;;;;;;;9.13;4.70;;;1.00;99.90;;;;;;5024380;28;20240;-64
2021/12/07 03:00:49;;;;;;;11.40;5.37;;;1.00;99.90;;;;;;5025916;28;20190;-64
2021/12/07 03:03:38;;;;;;;8.70;4.70;;;1.00;99.90;;;;;;5022558;28;20242;-64
2021/12/07 03:06:50;;;;;;;11.80;5.93;;;1.00;99.90;;;;;;5024993;28;20255;-64
2021/12/07 03:28:01;;;;;;;10.90;5.37;;;1.00;99.90;;;;;;5025604;28;20193;-64
2021/12/07 03:30:45;;;;;;;9.80;5.47;;;1.10;99.90;;;;;;5024432;28;20317;-65
2021/12/07 03:33:30;;;;;;;9.13;5.27;;;1.00;99.90;;;;;;5021650;28;20198;-64
2021/12/07 03:36:15;;;;;;;12.60;6.27;;;1.00;99.90;;;;;;5024434;28;20199;-65
2021/12/07 03:39:00;;;;;;;6.23;4.47;;;1.00;99.90;;;;;;5023562;28;20227;-66
2021/12/07 03:41:45;;;;;;;10.93;5.67;;;1.00;99.90;;;;;;5022637;28;20214;-65
2021/12/07 03:44:30;;;;;;;5.83;4.20;;;1.10;99.90;;;;;;5026186;28;20195;-64
2021/12/07 03:47:14;;;;;;;8.03;4.90;;;1.10;99.90;;;;;;5022186;28;20312;-67
2021/12/07 03:49:59;;;;;;;9.17;5.20;;;1.00;99.90;;;;;;5023399;28;20321;-64
2021/12/07 03:52:43;;;;;;;5.37;3.63;;;1.00;99.90;;;;;;5024979;28;20260;-65
2021/12/07 03:55:28;;;;;;;11.83;5.07;;;1.00;99.90;;;;;;5021434;28;20248;-65
2021/12/07 03:58:12;;;;;;;11.50;5.10;;;1.00;99.90;;;;;;5033934;28;20249;-65
2021/12/07 04:00:56;;;;;;;7.60;4.13;;;1.00;99.90;;;;;;5029971;28;20210;-66
2021/12/07 04:03:42;;;;;;;5.60;3.73;;;1.10;99.90;;;;;;5015725;28;20227;-65
2021/12/07 04:06:27;;;;;;;11.93;5.70;;;1.10;99.90;;;;;;5034787;28;20236;-64
2021/12/07 04:09:11;;;;;;;12.93;6.23;;;1.10;99.90;;;;;;5042499;28;20361;-65
2021/12/07 04:15:38;;;;;;;10.97;4.33;;;1.10;99.90;;;;;;5044761;28;20194;-65
2021/12/07 04:18:23;;;;;;;4.77;3.83;;;1.10;99.90;;;;;;5026633;28;20241;-66
2021/12/07 04:21:08;;;;;;;10.50;3.83;;;1.10;99.90;;;;;;5020019;28;20338;-63
2021/12/07 04:23:53;;;;;;;9.83;5.20;;;1.20;99.90;;;;;;5022458;28;20194;-65
2021/12/07 04:26:39;;;;;;;5.90;3.90;;;1.10;99.90;;;;;;5016238;28;20296;-66
2021/12/07 04:29:24;;;;;;;9.03;5.00;;;1.20;99.90;;;;;;5018132;28;20235;-65
2021/12/07 04:32:09;;;;;;;7.30;4.53;;;1.20;99.90;;;;;;5022029;28;20198;-66
2021/12/07 04:34:53;;;;;;;4.73;3.67;;;1.10;99.90;;;;;;5019886;28;20273;-65
2021/12/07 04:37:39;;;;;;;8.73;5.67;;;1.10;99.90;;;;;;5020946;28;20205;-65
2021/12/07 04:40:28;;;;;;;7.53;4.20;;;1.10;99.90;;;;;;5020786;28;20945;-66
2021/12/07 04:43:12;;;;;;;10.33;6.77;;;1.10;99.90;;;;;;5018663;28;20195;-66
2021/12/07 04:57:46;;;;;;;11.27;5.13;;;1.10;99.90;;;;;;5021765;28;20202;-66
2021/12/07 05:00:30;;;;;;;8.00;5.37;;;1.00;99.90;;;;;;5018059;28;20275;-66
2021/12/07 05:03:15;;;;;;;8.90;5.67;;;1.10;99.90;;;;;;5021531;28;20195;-64
2021/12/07 05:05:59;;;;;;;9.27;4.50;;;1.10;99.90;;;;;;5018986;28;20233;-64
2021/12/07 05:08:48;;;;;;;5.07;3.77;;;1.10;99.90;;;;;;5017205;28;20222;-64
2021/12/07 05:11:46;;;;;;;4.47;3.80;;;1.00;99.90;;;;;;5022837;28;20250;-64
2021/12/07 05:14:34;;;;;;;9.90;5.53;;;1.10;99.90;;;;;;5021532;28;20199;-65
2021/12/07 05:38:40;;;;;;;4.17;3.57;;;0.90;99.90;;;;;;5024707;28;20218;-65
2021/12/07 05:41:26;;;;;;;3.07;2.53;;;1.00;99.90;;;;;;5024346;28;20283;-65
2021/12/07 05:44:11;;;;;;;3.83;2.97;;;1.10;99.90;;;;;;5022427;28;20191;-65
2021/12/07 05:46:55;;;;;;;7.73;4.07;;;1.00;99.90;;;;;;5024526;28;20199;-65
2021/12/07 05:49:40;;;;;;;6.90;3.80;;;1.00;99.90;;;;;;5025521;28;20219;-65
2021/12/07 05:52:24;;;;;;;4.83;3.93;;;1.10;99.90;;;;;;5020189;28;20230;-65
2021/12/07 05:55:09;;;;;;;4.67;2.67;;;1.10;99.90;;;;;;5023425;28;20237;-65
2021/12/07 05:57:54;;;;;;;3.70;3.40;;;1.20;99.90;;;;;;5014875;28;20207;-65
2021/12/07 06:00:43;;;;;;;3.40;3.10;;;1.10;99.90;;;;;;5028116;28;20676;-65
2021/12/07 06:03:28;;;;;;;4.80;3.67;;;1.10;99.90;;;;;;5022432;28;20199;-65
2021/12/07 06:06:12;;;;;;;4.60;3.63;;;1.20;99.90;;;;;;5021026;28;20261;-67
2021/12/07 06:08:56;;;;;;;12.97;3.47;;;1.20;99.90;;;;;;5020607;28;20215;-66
2021/12/07 06:11:42;;;;;;;4.70;2.77;;;1.20;99.90;;;;;;5024444;28;20277;-66
2021/12/07 06:14:34;;;;;;;4.23;3.63;;;1.20;99.90;;;;;;5019996;28;20203;-64
2021/12/07 06:17:18;;;;;;;4.27;2.97;;;1.20;99.90;;;;;;5021509;28;20278;-65
2021/12/07 06:20:04;;;;;;;6.50;3.57;;;1.10;99.90;;;;;;5021427;28;20210;-65
2021/12/07 06:22:49;;;;;;;3.03;1.83;;;1.20;99.90;;;;;;5020745;28;20223;-65
2021/12/07 06:25:34;;;;;;;4.27;3.03;;;1.20;99.90;;;;;;5022483;28;20205;-67
2021/12/07 06:28:18;;;;;;;3.33;3.03;;;1.20;99.90;;;;;;5020887;28;20191;-67
2021/12/07 06:31:03;;;;;;;3.57;3.27;;;1.20;99.90;;;;;;5018377;28;20214;-67
2021/12/07 06:33:48;;;;;;;4.77;3.00;;;1.30;99.90;;;;;;5017541;28;20207;-70
2021/12/07 06:36:32;;;;;;;4.67;2.53;;;1.30;99.90;;;;;;5019867;28;20283;-66
2021/12/07 06:39:18;;;;;;;2.53;2.33;;;1.40;99.90;;;;;;5019709;28;20237;-66
2021/12/07 06:42:02;;;;;;;4.10;3.57;;;1.40;99.90;;;;;;5022121;28;20196;-68
2021/12/07 06:44:47;;;;;;;3.03;2.07;;;1.40;99.90;;;;;;5015020;28;20223;-68
2021/12/07 06:47:31;;;;;;;3.20;2.43;;;1.40;99.90;;;;;;5021050;28;20215;-66
2021/12/07 06:50:15;;;;;;;3.33;2.50;;;1.40;99.90;;;;;;5021588;28;20258;-65
2021/12/07 06:53:00;;;;;;;3.43;3.13;;;1.40;99.90;;;;;;5013081;28;20200;-68
2021/12/07 06:55:44;;;;;;;3.77;2.93;;;1.50;99.90;;;;;;5019877;28;20227;-66
2021/12/07 06:58:29;;;;;;;3.57;2.33;;;1.40;99.90;;;;;;5020845;28;20261;-67
2021/12/07 07:01:14;;;;;;;4.17;2.70;;;1.50;99.90;;;;;;5018496;28;20203;-68
2021/12/07 07:03:59;;;;;;;2.80;2.63;;;1.50;99.90;;;;;;5018571;28;20298;-66
2021/12/07 07:06:44;;;;;;;3.83;2.90;;;1.50;99.90;;;;;;5017542;28;20261;-66
2021/12/07 07:09:28;;;;;;;3.67;3.30;;;1.60;99.90;;;;;;5019908;28;20258;-67
2021/12/07 07:12:12;;;;;;;3.00;2.80;;;1.60;99.90;;;;;;5023471;28;20287;-67
2021/12/07 07:14:57;;;;;;;3.60;3.30;;;1.50;99.90;;;;;;5016231;28;20214;-67
2021/12/07 07:17:41;;;;;;;2.33;2.20;;;1.50;99.90;;;;;;5020215;28;20203;-69
2021/12/07 07:20:27;;;;;;;3.53;3.23;;;1.50;99.90;;;;;;5023608;28;20265;-69
2021/12/07 07:23:11;;;;;;;7.10;2.70;;;1.50;99.90;;;;;;5015582;28;20222;-67
2021/12/07 07:25:56;;;;;;;3.03;2.83;;;1.50;99.90;;;;;;5021021;28;20207;-66
2021/12/07 07:28:40;;;;;;;3.87;3.17;;;1.60;99.90;;;;;;5020940;28;20226;-68
2021/12/07 07:31:29;;;;;;;3.73;3.23;;;1.60;99.90;;;;;;5019445;28;20202;-67
2021/12/07 07:34:13;;;;;;;4.10;3.70;;;1.70;99.90;;;;;;5015420;28;20199;-67
2021/12/07 07:36:57;;;;;;;6.30;2.70;;;1.60;99.90;;;;;;5019273;28;20195;-66
2021/12/07 07:39:42;;;;;;;3.23;2.63;;;1.70;99.90;;;;;;5021248;28;20199;-67
2021/12/07 07:42:26;;;;;;;5.27;2.97;;;1.70;99.90;;;;;;5022507;28;20234;-66
2021/12/07 07:45:12;;;;;;;3.37;3.03;;;1.80;99.90;;;;;;5016425;28;20260;-66
2021/12/07 07:47:56;;;;;;;5.30;4.00;;;1.80;99.90;;;;;;5020042;28;20190;-65
2021/12/07 07:50:41;;;;;;;4.73;3.40;;;1.80;99.90;;;;;;5019385;28;20320;-65
2021/12/07 07:53:25;;;;;;;3.00;2.70;;;1.80;99.90;;;;;;5013369;28;20238;-65
2021/12/07 07:56:10;;;;;;;3.73;3.40;;;1.80;99.90;;;;;;5020915;28;20190;-65
2021/12/07 07:58:57;;;;;;;3.67;3.27;;;1.70;99.90;;;;;;5019402;28;20237;-68
2021/12/07 08:01:41;;;;;;;8.43;4.07;;;1.80;99.90;;;;;;5018007;28;20191;-68
2021/12/07 08:04:26;;;;;;;5.93;3.80;;;1.70;99.90;;;;;;5018088;28;20226;-65
2021/12/07 08:07:11;;;;;;;4.40;3.83;;;1.70;99.90;;;;;;5019196;28;20210;-70
2021/12/07 08:09:55;;;;;;;4.60;3.90;;;1.80;99.90;;;;;;5019922;28;20289;-67
2021/12/07 08:12:39;;;;;;;7.27;4.10;;;1.80;99.90;;;;;;5020391;28;20187;-68
2021/12/07 08:15:30;;;;;;;3.87;3.07;;;1.90;99.90;;;;;;5016835;28;20199;-68
2021/12/07 08:18:15;;;;;;;5.33;4.43;;;1.90;99.90;;;;;;5019564;28;20191;-68
2021/12/07 08:20:59;;;;;;;4.70;3.10;;;1.90;99.90;;;;;;5018758;28;20261;-69
2021/12/07 08:23:45;;;;;;;5.03;4.53;;;1.90;99.90;;;;;;5014441;28;20283;-66
2021/12/07 08:26:31;;;;;;;4.80;3.40;;;1.90;99.90;;;;;;5021118;28;20289;-66
2021/12/07 08:29:15;;;;;;;3.63;3.33;;;1.90;99.90;;;;;;5019054;28;20187;-68
2021/12/07 08:32:00;;;;;;;3.77;3.33;;;1.90;99.90;;;;;;5017917;28;20273;-67
2021/12/07 08:34:44;;;;;;;12.77;4.10;;;2.00;99.90;;;;;;5015344;28;20241;-66
2021/12/07 08:37:29;;;;;;;3.40;3.10;;;2.00;99.90;;;;;;5018481;28;20249;-65
2021/12/07 08:40:20;;;;;;;4.07;3.30;;;2.00;99.90;;;;;;5019760;28;20194;-67
2021/12/07 08:43:07;;;;;;;4.27;3.43;;;2.10;99.90;;;;;;5019974;28;20199;-68
2021/12/07 08:45:55;;;;;;;5.07;3.60;;;2.10;99.90;;;;;;5016966;28;20214;-67
2021/12/07 08:48:41;;;;;;;3.77;2.40;;;2.10;99.90;;;;;;5018925;28;20291;-67
2021/12/07 08:51:26;;;;;;;3.27;3.07;;;2.20;99.90;;;;;;5020685;28;20234;-67
2021/12/07 09:00:45;;;;;;;3.40;2.57;;;2.20;99.90;;;;;;4937504;29;20209;-68
2021/12/07 09:03:30;;;;;;;5.27;2.53;;;2.20;99.90;;;;;;5015856;28;20285;-67
2021/12/07 09:06:15;;;;;;;4.77;3.40;;;2.20;99.90;;;;;;5020868;28;20206;-69
2021/12/07 09:09:00;;;;;;;3.40;3.03;;;2.10;99.90;;;;;;5022874;28;20234;-67
2021/12/07 09:11:44;;;;;;;3.53;3.33;;;2.20;99.90;;;;;;5016958;28;20226;-66
2021/12/07 09:14:30;;;;;;;5.53;2.07;;;2.20;99.90;;;;;;5018514;28;20202;-66
2021/12/07 09:17:15;;;;;;;2.37;2.27;;;2.20;99.90;;;;;;5023500;28;20191;-68
2021/12/07 09:19:59;;;;;;;3.97;2.33;;;2.30;99.90;;;;;;5021195;28;20215;-68
2021/12/07 09:22:46;;;;;;;4.10;2.53;;;2.40;99.90;;;;;;5024286;28;20227;-69
2021/12/07 09:25:31;;;;;;;2.27;1.80;;;2.50;99.90;;;;;;5020272;28;20291;-68
2021/12/07 09:28:15;;;;;;;3.47;2.60;;;2.60;99.90;;;;;;5017055;28;20239;-68
2021/12/07 09:31:00;;;;;;;3.27;2.80;;;2.60;99.90;;;;;;5023914;28;20227;-68
2021/12/07 09:33:45;;;;;;;3.27;3.00;;;2.60;99.90;;;;;;5017768;28;20203;-69
2021/12/07 09:36:31;;;;;;;4.63;2.60;;;2.50;99.90;;;;;;5021838;28;20226;-67
2021/12/07 09:39:18;;;;;;;2.30;1.87;;;2.40;99.90;;;;;;5024602;28;20207;-70
2021/12/07 09:42:02;;;;;;;1.63;1.43;;;2.40;99.90;;;;;;5021311;28;20190;-68
2021/12/07 09:44:47;;;;;;;3.37;2.63;;;2.50;99.90;;;;;;5019261;28;20205;-67
2021/12/07 09:47:31;;;;;;;2.43;2.23;;;2.60;99.90;;;;;;5025157;28;20199;-70
2021/12/07 09:50:19;;;;;;;1.63;1.53;;;2.60;99.90;;;;;;5020499;28;20767;-68
2021/12/07 09:53:07;;;;;;;2.80;2.20;;;2.50;99.90;;;;;;5022604;28;20231;-67
2021/12/07 09:55:52;;;;;;;3.60;2.67;;;2.60;99.90;;;;;;5023389;28;20283;-67
2021/12/07 09:58:38;;;;;;;2.63;1.13;;;2.60;99.90;;;;;;5021656;28;20290;-68
2021/12/07 10:01:24;;;;;;;4.67;2.37;;;2.60;99.90;;;;;;5026312;28;20203;-68
2021/12/07 10:04:09;;;;;;;2.47;2.03;;;2.60;99.90;;;;;;5019839;28;20203;-68
2021/12/07 10:06:55;;;;;;;2.60;2.20;;;2.60;99.90;;;;;;5023607;28;20199;-66
2021/12/07 10:09:41;;;;;;;2.43;1.97;;;2.60;99.90;;;;;;5024661;28;20326;-66
2021/12/07 10:12:27;;;;;;;1.83;1.67;;;2.70;99.90;;;;;;5020683;28;20195;-67
2021/12/07 10:15:12;;;;;;;1.73;1.63;;;2.80;99.90;;;;;;5021020;28;20199;-67
2021/12/07 10:18:05;;;;;;;2.90;2.13;;;2.90;99.90;;;;;;5022518;28;20250;-67
2021/12/07 10:20:58;;;;;;;2.73;2.07;;;3.00;99.90;;;;;;5018196;28;20266;-66
2021/12/07 10:23:46;;;;;;;2.40;2.20;;;3.00;99.90;;;;;;5018412;28;20262;-65
2021/12/07 10:26:36;;;;;;;2.27;2.00;;;3.00;99.90;;;;;;5022573;28;20191;-66
2021/12/07 10:29:21;;;;;;;2.60;2.10;;;2.90;99.90;;;;;;5017541;28;20267;-66
2021/12/07 10:32:07;;;;;;;1.60;1.50;;;2.90;99.90;;;;;;5023108;28;20194;-66
2021/12/07 10:34:55;;;;;;;1.60;1.50;;;2.80;99.90;;;;;;5017723;28;20203;-68
2021/12/07 10:37:39;;;;;;;1.93;1.73;;;2.90;99.90;;;;;;5033292;28;20280;-65
2021/12/07 10:40:25;;;;;;;1.57;1.23;;;2.90;99.90;;;;;;5022278;28;20249;-66
2021/12/07 10:43:09;;;;;;;1.73;1.63;;;3.00;99.90;;;;;;5017264;28;20261;-65
2021/12/07 10:45:53;;;;;;;1.87;1.77;;;3.00;99.90;;;;;;5020711;28;20234;-65
2021/12/07 10:48:38;;;;;;;6.40;1.83;;;2.80;99.90;;;;;;5022726;28;20198;-65
2021/12/07 10:51:23;;;;;;;1.40;1.30;;;2.80;99.90;;;;;;5016753;28;20302;-69
2021/12/07 10:54:08;;;;;;;2.27;1.60;;;2.80;99.90;;;;;;5020908;28;20290;-64
2021/12/07 10:56:53;;;;;;;1.63;1.50;;;2.80;99.90;;;;;;5019336;28;20236;-65
2021/12/07 10:59:39;;;;;;;1.77;1.47;;;2.80;99.90;;;;;;5020509;28;20203;-65
2021/12/07 11:02:30;;;;;;;2.37;1.23;;;2.90;99.90;;;;;;5024054;28;20186;-67
2021/12/07 11:05:22;;;;;;;1.23;1.23;;;3.00;99.90;;;;;;5018011;28;20202;-67
2021/12/07 11:08:09;;;;;;;1.20;1.10;;;3.10;99.90;;;;;;5017692;28;20273;-66
2021/12/07 11:10:55;;;;;;;1.53;1.50;;;3.00;99.90;;;;;;5024597;28;20234;-67
2021/12/07 11:13:50;;;;;;;1.60;1.57;;;3.00;99.90;;;;;;5017957;28;20249;-66
2021/12/07 11:16:35;;;;;;;1.10;1.00;;;3.00;99.90;;;;;;5021979;28;20246;-65
2021/12/07 11:19:21;;;;;;;1.67;1.47;;;3.00;99.90;;;;;;5024372;28;20229;-67
2021/12/07 11:22:06;;;;;;;1.20;1.10;;;3.00;99.90;;;;;;5020973;28;20198;-67
2021/12/07 11:24:52;;;;;;;0.90;0.90;;;3.00;99.90;;;;;;5017440;28;20245;-66
2021/12/07 11:30:39;;;;;;;1.83;1.73;;;3.30;99.90;;;;;;5020478;28;20238;-68
2021/12/07 11:33:24;;;;;;;1.20;1.10;;;3.20;99.90;;;;;;5017969;28;20206;-69
2021/12/07 11:36:22;;;;;;;1.33;1.23;;;3.20;99.90;;;;;;5023245;28;20281;-66
2021/12/07 11:39:29;;;;;;;3.43;1.57;;;3.30;99.90;;;;;;5019747;28;20262;-62
2021/12/07 11:42:22;;;;;;;1.57;1.53;;;3.30;99.90;;;;;;5022307;28;20198;-73
2021/12/07 11:45:17;;;;;;;0.93;0.77;;;3.20;99.90;;;;;;5021319;28;20187;-74
2021/12/07 11:48:05;;;;;;;1.77;1.67;;;3.30;99.90;;;;;;5015197;28;20222;-68
2021/12/07 11:50:51;;;;;;;1.20;1.20;;;3.30;99.90;;;;;;5020255;28;20289;-64
2021/12/07 11:53:35;;;;;;;2.40;1.67;;;3.30;99.90;;;;;;5020341;28;20330;-55
2021/12/07 11:56:20;;;;;;;1.73;1.63;;;3.40;99.90;;;;;;5018511;28;20199;-61
2021/12/07 11:59:06;;;;;;;1.47;1.30;;;3.70;99.90;;;;;;5021504;28;20218;-55
2021/12/07 12:01:51;;;;;;;0.77;0.77;;;3.70;99.90;;;;;;5022248;28;20223;-58
2021/12/07 12:04:35;;;;;;;1.17;1.00;;;3.80;99.90;;;;;;5015842;28;20194;-58
2021/12/07 12:07:21;;;;;;;2.40;1.33;;;3.80;99.90;;;;;;5022789;28;20397;-58
2021/12/07 12:10:07;;;;;;;0.90;0.90;;;3.80;99.90;;;;;;5021273;28;20254;-62
2021/12/07 12:13:07;;;;;;;0.83;0.73;;;4.00;99.90;;;;;;5018943;28;20210;-56
2021/12/07 12:16:02;;;;;;;1.17;1.07;;;4.10;99.90;;;;;;5022357;28;20202;-56
2021/12/07 12:19:21;;;;;;;1.37;1.27;;;4.20;99.90;;;;;;5020209;28;20194;-54
2021/12/07 12:22:08;;;;;;;0.90;0.90;;;4.00;99.90;;;;;;5018336;28;20203;-56
2021/12/07 12:24:55;;;;;;;1.70;1.60;;;4.10;99.90;;;;;;5018173;28;20245;-65
2021/12/07 12:27:41;;;;;;;0.93;0.80;;;4.10;99.90;;;;;;5019351;28;20214;-59
2021/12/07 12:30:27;;;;;;;1.53;1.50;;;4.00;99.90;;;;;;5019135;28;20230;-58
2021/12/07 12:33:14;;;;;;;1.43;1.33;;;3.90;99.90;;;;;;5021097;28;20215;-65
2021/12/07 12:35:59;;;;;;;0.47;0.47;;;3.90;99.90;;;;;;5020635;28;20242;-66
2021/12/07 12:38:48;;;;;;;1.00;0.80;;;4.00;99.90;;;;;;5020080;28;20279;-64
2021/12/07 12:41:34;;;;;;;1.27;1.10;;;4.00;99.90;;;;;;5023077;28;20244;-66
2021/12/07 12:44:25;;;;;;;3.03;0.97;;;3.90;99.90;;;;;;5014445;28;20222;-61
2021/12/07 12:47:09;;;;;;;0.80;0.80;;;3.90;99.90;;;;;;5020684;28;20197;-66
2021/12/07 12:50:08;;;;;;;0.80;0.80;;;4.00;99.90;;;;;;5024346;28;20230;-58
2021/12/07 12:52:57;;;;;;;0.80;0.80;;;4.10;99.90;;;;;;5021566;28;20199;-62
2021/12/07 12:55:51;;;;;;;1.37;1.23;;;4.00;99.90;;;;;;5021782;28;20226;-60
2021/12/07 12:58:54;;;;;;;0.57;0.57;;;4.00;99.90;;;;;;5022998;28;20202;-66
2021/12/07 13:01:44;;;;;;;1.00;1.00;;;4.00;99.90;;;;;;5019766;28;20198;-58
2021/12/07 13:04:31;;;;;;;1.30;0.73;;;4.00;99.90;;;;;;5018520;28;20249;-62
2021/12/07 13:07:26;;;;;;;1.10;1.00;;;4.10;99.90;;;;;;5025373;28;20242;-58
2021/12/07 13:10:11;;;;;;;0.50;0.50;;;4.10;99.90;;;;;;5020801;28;20272;-61
2021/12/07 13:12:56;;;;;;;0.80;0.80;;;4.00;99.90;;;;;;5022260;28;20211;-53
2021/12/07 13:15:44;;;;;;;0.90;0.90;;;4.20;99.90;;;;;;5023060;28;20646;-59
2021/12/07 13:18:32;;;;;;;0.80;0.80;;;4.00;99.90;;;;;;5020901;28;20191;-61
2021/12/07 13:21:18;;;;;;;5.07;1.17;;;4.00;99.90;;;;;;5022794;28;20226;-58
2021/12/07 13:24:15;;;;;;;0.80;0.80;;;3.80;99.90;;;;;;5020604;28;20278;-66
2021/12/07 13:27:00;;;;;;;0.73;0.73;;;3.90;99.90;;;;;;5020648;28;20198;-57
2021/12/07 13:29:51;;;;;;;0.73;0.70;;;3.90;99.90;;;;;;5022177;28;20301;-59
2021/12/07 13:32:35;;;;;;;0.83;0.70;;;3.90;99.90;;;;;;5023729;28;20198;-63
2021/12/07 13:35:30;;;;;;;1.67;1.00;;;3.90;99.90;;;;;;5018525;28;20221;-63
2021/12/07 13:38:26;;;;;;;1.87;1.07;;;4.00;99.90;;;;;;5024703;28;20210;-64
2021/12/07 13:41:14;;;;;;;0.70;0.70;;;4.10;99.90;;;;;;5023332;28;20233;-58
2021/12/07 13:43:58;;;;;;;2.17;1.77;;;4.10;99.90;;;;;;5014965;28;20207;-58
2021/12/07 13:46:43;;;;;;;0.60;0.60;;;4.20;99.90;;;;;;5025619;28;20326;-54
2021/12/07 13:49:29;;;;;;;0.50;0.50;;;4.40;99.90;;;;;;5021838;28;20202;-62
2021/12/07 13:52:27;;;;;;;0.47;0.47;;;4.50;99.90;;;;;;5151926;27;20543;-65
2021/12/07 13:55:15;;;;;;;0.60;0.60;;;4.40;99.90;;;;;;5146388;27;20279;-53
2021/12/07 13:58:02;;;;;;;0.77;0.77;;;4.50;99.90;;;;;;5139780;27;20206;-58
2021/12/07 14:00:46;;;;;;;0.70;0.70;;;4.30;99.90;;;;;;5157555;27;20195;-62
2021/12/07 14:03:30;;;;;;;1.10;1.10;;;3.90;99.90;;;;;;5146256;27;20198;-61
2021/12/07 14:06:15;;;;;;;0.63;0.63;;;3.80;99.90;;;;;;5146125;27;20201;-64
2021/12/07 14:09:09;;;;;;;3.80;0.80;;;3.60;99.90;;;;;;5148281;27;20186;-59
2021/12/07 14:11:58;;;;;;;7.63;1.10;;;3.70;99.90;;;;;;5148017;27;20237;-64
2021/12/07 14:14:42;;;;;;;0.83;0.60;;;3.50;99.90;;;;;;5133821;27;20186;-61
2021/12/07 14:17:37;;;;;;;1.70;1.10;;;3.40;99.90;;;;;;5145709;27;20196;-60
2021/12/07 14:20:39;;;;;;;0.90;0.90;;;3.40;99.90;;;;;;5141720;27;20221;-65
2021/12/07 14:23:36;;;;;;;2.93;0.77;;;3.20;99.90;;;;;;5149473;27;20331;-62
2021/12/07 14:26:25;;;;;;;0.90;0.90;;;3.30;99.90;;;;;;5150141;27;20194;-61
2021/12/07 14:29:14;;;;;;;0.90;0.90;;;3.20;99.90;;;;;;5130371;27;20252;-65
2021/12/07 14:31:59;;;;;;;1.07;1.07;;;3.20;99.90;;;;;;5156355;27;20222;-59
2021/12/07 14:34:47;;;;;;;0.90;0.90;;;3.20;99.90;;;;;;5131469;27;20222;-65
2021/12/07 14:37:32;;;;;;;0.60;0.60;;;3.30;99.90;;;;;;5139639;27;20203;-63
2021/12/07 14:40:16;;;;;;;1.30;1.20;;;3.80;99.90;;;;;;5148823;27;20190;-58
2021/12/07 14:43:00;;;;;;;4.17;1.50;;;4.30;99.90;;;;;;5148718;27;20286;-63
2021/12/07 14:45:45;;;;;;;0.73;0.73;;;4.10;99.90;;;;;;5124096;27;20207;-61
2021/12/07 14:48:31;;;;;;;0.97;0.83;;;4.00;99.90;;;;;;5137508;27;20939;-53
2021/12/07 14:51:25;;;;;;;2.53;1.00;;;3.60;99.90;;;;;;5130109;27;20236;-62
2021/12/07 14:54:13;;;;;;;0.87;0.87;;;3.50;99.90;;;;;;5132693;27;20195;-63
2021/12/07 14:56:59;;;;;;;0.97;0.57;;;3.30;99.90;;;;;;5144716;27;20329;-63
2021/12/07 14:59:44;;;;;;;0.70;0.70;;;3.20;99.90;;;;;;5138452;27;20194;-64
2021/12/07 15:02:33;;;;;;;1.37;0.87;;;3.20;99.90;;;;;;5132193;27;20201;-63
2021/12/07 15:05:17;;;;;;;0.50;0.50;;;3.10;99.90;;;;;;5128539;27;20191;-57
2021/12/07 15:08:05;;;;;;;1.07;0.63;;;3.10;99.90;;;;;;5128211;27;20237;-65
2021/12/07 15:10:49;;;;;;;0.60;0.60;;;3.00;99.90;;;;;;5147685;27;20215;-58
2021/12/07 15:13:34;;;;;;;3.47;0.87;;;3.00;99.90;;;;;;5130682;27;20195;-58
2021/12/07 15:16:19;;;;;;;1.23;1.00;;;2.90;99.90;;;;;;5117202;27;20201;-59
2021/12/07 15:19:05;;;;;;;0.70;0.70;;;2.80;99.90;;;;;;5121945;27;20249;-59
2021/12/07 15:21:52;;;;;;;1.00;0.50;;;2.80;99.90;;;;;;5127644;27;20234;-60
2021/12/07 15:24:38;;;;;;;1.43;1.37;;;2.70;99.90;;;;;;5123022;27;20195;-59
2021/12/07 15:27:23;;;;;;;2.00;1.37;;;2.70;99.90;;;;;;5126568;27;20203;-58
2021/12/07 15:30:08;;;;;;;2.93;1.60;;;2.70;99.90;;;;;;5151407;27;20191;-61
2021/12/07 15:32:53;;;;;;;0.90;0.90;;;2.70;99.90;;;;;;5137704;27;20586;-61
2021/12/07 15:35:37;;;;;;;1.30;1.10;;;2.70;99.90;;;;;;5131028;27;20232;-60
2021/12/07 15:38:21;;;;;;;4.03;1.83;;;2.70;99.90;;;;;;5133212;27;20196;-61
2021/12/07 15:41:06;;;;;;;1.13;1.13;;;2.80;99.90;;;;;;5121322;27;20223;-57
2021/12/07 15:43:50;;;;;;;1.00;1.00;;;2.80;99.90;;;;;;5124967;27;20204;-57
2021/12/07 15:46:47;;;;;;;1.70;1.00;;;2.80;99.90;;;;;;5119815;27;20208;-60
2021/12/07 15:49:35;;;;;;;0.83;0.80;;;2.90;99.90;;;;;;5127148;27;20206;-60
2021/12/07 15:52:23;;;;;;;1.40;1.30;;;2.90;99.90;;;;;;5125986;27;20276;-59
2021/12/07 15:55:11;;;;;;;0.60;0.60;;;2.90;99.90;;;;;;5117009;27;20203;-61
2021/12/07 15:57:57;;;;;;;3.63;1.43;;;2.90;99.90;;;;;;5131211;27;20223;-60
2021/12/07 16:00:48;;;;;;;1.23;0.63;;;2.90;99.90;;;;;;5126613;27;20301;-60
2021/12/07 16:03:41;;;;;;;0.93;0.83;;;2.90;99.90;;;;;;5120706;27;20361;-60
2021/12/07 16:10:23;;;;;;;2.00;1.00;;;2.90;99.90;;;;;;5130064;27;20325;-58
2021/12/07 16:13:12;;;;;;;1.20;1.20;;;2.90;99.90;;;;;;5136783;27;20280;-62
2021/12/07 16:16:03;;;;;;;0.70;0.70;;;2.80;99.90;;;;;;5122902;27;20296;-59
2021/12/07 16:18:48;;;;;;;0.93;0.93;;;2.80;99.90;;;;;;5119303;27;20214;-60
2021/12/07 16:21:33;;;;;;;3.43;0.97;;;2.80;99.90;;;;;;5127010;27;20240;-62
2021/12/07 16:24:18;;;;;;;1.93;0.80;;;2.70;99.90;;;;;;5122952;27;20233;-54
2021/12/07 16:27:03;;;;;;;1.50;0.90;;;2.70;99.90;;;;;;5124167;27;20211;-54
2021/12/07 16:29:47;;;;;;;1.60;1.50;;;2.60;99.90;;;;;;5118464;27;20238;-57